createdAt,value
2018-03-20T00:01:32.866Z,0.00
2018-03-20T00:02:33.281Z,0.00
2018-03-20T00:04:27.866Z,0.00
2018-03-20T00:05:28.286Z,0.00
2018-03-20T00:07:25.763Z,0.00
2018-03-20T00:08:26.187Z,0.00
2018-03-20T00:10:22.635Z,0.00
2018-03-20T00:11:23.043Z,0.00
2018-03-20T00:13:17.621Z,0.00
2018-03-20T00:14:18.026Z,0.00
2018-03-20T00:16:12.604Z,0.00
2018-03-20T00:17:13.018Z,0.00
2018-03-20T00:19:07.596Z,0.00
2018-03-20T00:20:08.021Z,0.00
2018-03-20T00:22:02.607Z,0.00
2018-03-20T00:23:03.015Z,0.00
2018-03-20T00:24:57.598Z,0.00
2018-03-20T00:25:58.020Z,0.00
2018-03-20T00:27:52.612Z,0.00
2018-03-20T00:28:53.018Z,0.00
2018-03-20T00:30:47.605Z,0.00
2018-03-20T00:31:48.015Z,0.00
2018-03-20T00:33:42.601Z,0.00
2018-03-20T00:34:43.018Z,0.00
2018-03-20T00:36:42.054Z,0.00
2018-03-20T00:39:16.108Z,0.00
2018-03-20T00:40:16.523Z,0.00
2018-03-20T00:42:11.109Z,0.00
2018-03-20T00:43:11.522Z,0.00
2018-03-20T00:45:07.084Z,0.00
2018-03-20T00:46:07.493Z,0.00
2018-03-20T00:48:02.097Z,0.00
2018-03-20T00:49:02.485Z,0.00
2018-03-20T00:51:10.269Z,0.00
2018-03-20T00:53:57.807Z,0.00
2018-03-20T00:56:31.330Z,0.00
2018-03-20T00:57:31.769Z,0.00
2018-03-20T00:59:42.895Z,0.00
2018-03-20T01:00:43.310Z,0.00
2018-03-20T01:02:37.900Z,0.00
2018-03-20T01:03:38.309Z,0.00
2018-03-20T01:05:32.889Z,0.00
2018-03-20T01:06:33.316Z,0.00
2018-03-20T01:08:27.895Z,0.00
2018-03-20T01:09:28.311Z,0.00
2018-03-20T01:11:22.884Z,0.00
2018-03-20T01:12:23.307Z,0.00
2018-03-20T01:14:17.894Z,0.00
2018-03-20T01:15:18.302Z,0.00
2018-03-20T01:17:12.936Z,0.00
2018-03-20T01:18:13.307Z,0.00
2018-03-20T01:19:13.725Z,0.00
2018-03-20T01:20:14.138Z,0.00
2018-03-20T01:21:14.554Z,0.00
2018-03-20T01:22:14.974Z,0.00
2018-03-20T01:23:15.393Z,0.00
2018-03-20T01:24:15.809Z,0.00
2018-03-20T01:25:16.281Z,0.00
2018-03-20T01:26:16.642Z,0.00
2018-03-20T01:27:17.062Z,0.00
2018-03-20T01:28:17.482Z,0.00
2018-03-20T01:29:17.897Z,0.00
2018-03-20T01:30:18.312Z,0.00
2018-03-20T01:31:18.730Z,0.00
2018-03-20T01:32:19.146Z,0.00
2018-03-20T01:33:19.566Z,0.00
2018-03-20T01:34:19.984Z,0.00
2018-03-20T01:35:20.401Z,0.00
2018-03-20T01:37:53.938Z,0.00
2018-03-20T01:38:54.347Z,0.00
2018-03-20T01:40:51.060Z,0.00
2018-03-20T01:41:51.461Z,0.00
2018-03-20T01:43:46.054Z,0.00
2018-03-20T01:44:46.455Z,0.00
2018-03-20T01:46:42.226Z,0.00
2018-03-20T01:47:42.673Z,0.00
2018-03-20T01:49:40.400Z,0.00
2018-03-20T01:50:40.810Z,0.00
2018-03-20T01:52:36.371Z,0.00
2018-03-20T01:53:36.787Z,0.00
2018-03-20T01:55:31.370Z,0.00
2018-03-20T01:56:31.786Z,0.00
2018-03-20T01:58:26.362Z,0.00
2018-03-20T01:59:26.768Z,0.00
2018-03-20T02:01:22.338Z,0.00
2018-03-20T02:02:22.751Z,0.00
2018-03-20T02:07:27.386Z,0.00
2018-03-20T02:08:27.794Z,0.00
2018-03-20T02:10:22.381Z,0.00
2018-03-20T02:11:22.795Z,0.00
2018-03-20T02:13:18.354Z,0.00
2018-03-20T02:14:18.805Z,0.00
2018-03-20T02:16:13.356Z,0.00
2018-03-20T02:17:13.768Z,0.00
2018-03-20T02:19:09.686Z,0.00
2018-03-20T02:20:10.103Z,0.00
2018-03-20T02:22:05.656Z,0.00
2018-03-20T02:23:06.070Z,0.00
2018-03-20T02:25:01.646Z,0.00
2018-03-20T02:26:02.055Z,0.00
2018-03-20T02:27:56.642Z,0.00
2018-03-20T02:28:57.049Z,0.00
2018-03-20T02:30:51.674Z,0.00
2018-03-20T02:31:52.046Z,0.00
2018-03-20T02:33:46.635Z,0.00
2018-03-20T02:34:47.053Z,0.00
2018-03-20T02:36:41.618Z,0.00
2018-03-20T02:37:42.038Z,0.00
2018-03-20T02:39:40.578Z,0.00
2018-03-20T02:40:40.991Z,0.00
2018-03-20T02:41:41.420Z,0.00
2018-03-20T02:42:41.837Z,0.00
2018-03-20T02:43:42.253Z,0.00
2018-03-20T02:44:42.669Z,0.00
2018-03-20T02:45:43.085Z,0.00
2018-03-20T02:46:43.498Z,0.00
2018-03-20T02:47:43.933Z,0.00
2018-03-20T02:48:44.335Z,0.00
2018-03-20T02:49:44.762Z,0.00
2018-03-20T02:50:45.172Z,0.00
2018-03-20T02:51:45.587Z,0.00
2018-03-20T02:52:46.010Z,0.00
2018-03-20T02:53:46.421Z,0.00
2018-03-20T02:54:46.842Z,0.00
2018-03-20T02:55:47.253Z,0.00
2018-03-20T02:56:47.675Z,0.00
2018-03-20T02:57:48.093Z,0.00
2018-03-20T02:58:48.508Z,0.00
2018-03-20T02:59:48.926Z,0.00
2018-03-20T03:00:49.351Z,0.00
2018-03-20T03:01:49.758Z,0.00
2018-03-20T03:02:50.185Z,0.00
2018-03-20T03:03:50.595Z,0.00
2018-03-20T03:04:51.021Z,0.00
2018-03-20T03:07:25.547Z,0.00
2018-03-20T03:10:23.827Z,0.00
2018-03-20T03:13:10.542Z,0.00
2018-03-20T03:15:44.070Z,0.00
2018-03-20T03:16:44.487Z,0.00
2018-03-20T03:18:39.427Z,0.00
2018-03-20T03:19:39.838Z,0.00
2018-03-20T03:21:34.414Z,0.00
2018-03-20T03:22:34.837Z,0.00
2018-03-20T03:24:30.390Z,0.00
2018-03-20T03:25:30.808Z,0.00
2018-03-20T03:27:25.400Z,0.00
2018-03-20T03:28:25.804Z,0.00
2018-03-20T03:30:20.386Z,0.00
2018-03-20T03:31:20.793Z,0.00
2018-03-20T03:33:15.769Z,0.00
2018-03-20T03:34:15.899Z,0.00
2018-03-20T03:36:40.128Z,0.00
2018-03-20T03:37:40.531Z,0.00
2018-03-20T03:39:39.122Z,0.00
2018-03-20T03:44:00.552Z,0.00
2018-03-20T03:46:39.710Z,0.00
2018-03-20T03:47:40.115Z,0.00
2018-03-20T03:49:35.213Z,0.00
2018-03-20T03:50:35.629Z,0.00
2018-03-20T03:52:30.211Z,0.00
2018-03-20T03:55:18.260Z,0.00
2018-03-20T03:59:24.859Z,0.00
2018-03-20T04:03:36.439Z,0.00
2018-03-20T04:06:09.995Z,0.00
2018-03-20T04:08:43.516Z,0.00
2018-03-20T04:09:44.109Z,0.00
2018-03-20T04:10:44.346Z,0.00
2018-03-20T04:14:31.463Z,0.00
2018-03-20T04:15:31.876Z,0.00
2018-03-20T04:17:26.460Z,0.00
2018-03-20T04:18:26.863Z,0.00
2018-03-20T04:20:22.430Z,0.00
2018-03-20T04:21:22.851Z,0.00
2018-03-20T04:22:23.259Z,0.00
2018-03-20T04:23:23.685Z,0.00
2018-03-20T04:24:24.094Z,0.00
2018-03-20T04:25:24.508Z,0.00
2018-03-20T04:26:24.929Z,0.00
2018-03-20T04:27:25.345Z,0.00
2018-03-20T04:28:25.761Z,0.00
2018-03-20T04:29:26.180Z,0.00
2018-03-20T04:30:26.594Z,0.00
2018-03-20T04:31:27.013Z,0.00
2018-03-20T04:32:27.433Z,0.00
2018-03-20T04:33:27.849Z,0.00
2018-03-20T04:34:28.262Z,0.00
2018-03-20T04:35:28.678Z,0.00
2018-03-20T04:36:29.101Z,0.00
2018-03-20T04:37:29.514Z,0.00
2018-03-20T04:38:29.927Z,0.00
2018-03-20T04:39:30.350Z,0.00
2018-03-20T04:40:30.774Z,0.00
2018-03-20T04:41:31.179Z,0.00
2018-03-20T04:42:31.593Z,0.00
2018-03-20T04:43:32.019Z,0.00
2018-03-20T04:44:32.437Z,0.00
2018-03-20T04:45:32.845Z,0.00
2018-03-20T04:46:33.261Z,0.00
2018-03-20T04:47:33.688Z,0.00
2018-03-20T04:48:34.095Z,0.00
2018-03-20T04:49:34.510Z,0.00
2018-03-20T04:50:34.926Z,0.00
2018-03-20T04:51:35.344Z,0.00
2018-03-20T04:52:35.760Z,0.00
2018-03-20T04:53:36.177Z,0.00
2018-03-20T04:54:36.594Z,0.00
2018-03-20T04:55:37.011Z,0.00
2018-03-20T04:56:37.427Z,0.00
2018-03-20T04:57:37.844Z,0.00
2018-03-20T04:58:38.269Z,0.00
2018-03-20T04:59:38.695Z,0.00
2018-03-20T05:00:39.095Z,0.00
2018-03-20T05:01:39.526Z,0.00
2018-03-20T05:02:39.938Z,0.00
2018-03-20T05:04:34.572Z,0.00
2018-03-20T05:05:34.925Z,0.00
2018-03-20T05:07:29.508Z,0.00
2018-03-20T05:08:29.925Z,0.00
2018-03-20T05:10:24.486Z,5.63
2018-03-20T05:11:24.904Z,5.63
2018-03-20T05:12:25.325Z,5.63
2018-03-20T05:13:25.735Z,5.63
2018-03-20T05:14:26.167Z,5.63
2018-03-20T05:15:26.574Z,5.63
2018-03-20T05:16:26.992Z,5.63
2018-03-20T05:17:27.405Z,11.25
2018-03-20T05:18:27.822Z,11.25
2018-03-20T05:19:28.239Z,11.25
2018-03-20T05:20:28.652Z,11.25
2018-03-20T05:21:29.079Z,11.25
2018-03-20T05:22:29.488Z,11.25
2018-03-20T05:23:29.904Z,11.25
2018-03-20T05:24:30.320Z,11.25
2018-03-20T05:25:30.737Z,5.63
2018-03-20T05:26:31.161Z,5.63
2018-03-20T05:27:31.572Z,5.63
2018-03-20T05:28:31.987Z,5.63
2018-03-20T05:29:32.412Z,5.63
2018-03-20T05:30:32.832Z,5.63
2018-03-20T05:31:33.243Z,5.63
2018-03-20T05:32:33.659Z,5.63
2018-03-20T05:33:34.075Z,5.63
2018-03-20T05:34:34.497Z,5.63
2018-03-20T05:35:34.908Z,5.63
2018-03-20T05:36:35.328Z,5.63
2018-03-20T05:37:35.740Z,5.63
2018-03-20T05:38:36.160Z,11.25
2018-03-20T05:39:36.579Z,11.25
2018-03-20T05:40:36.992Z,11.25
2018-03-20T05:41:37.410Z,11.25
2018-03-20T05:42:37.828Z,11.25
2018-03-20T05:43:38.245Z,11.25
2018-03-20T05:44:38.661Z,11.25
2018-03-20T05:45:39.080Z,11.25
2018-03-20T05:46:39.493Z,11.25
2018-03-20T05:47:39.907Z,11.25
2018-03-20T05:48:40.325Z,16.88
2018-03-20T05:49:40.746Z,16.88
2018-03-20T05:50:41.160Z,16.88
2018-03-20T05:51:41.577Z,22.50
2018-03-20T05:52:41.992Z,22.50
2018-03-20T05:53:42.405Z,22.50
2018-03-20T05:54:42.826Z,22.50
2018-03-20T05:55:43.239Z,22.50
2018-03-20T05:56:43.659Z,28.13
2018-03-20T05:57:44.070Z,28.13
2018-03-20T05:58:44.491Z,33.75
2018-03-20T05:59:44.916Z,39.38
2018-03-20T06:00:45.325Z,50.63
2018-03-20T06:01:45.738Z,56.25
2018-03-20T06:02:46.156Z,67.50
2018-03-20T06:03:46.572Z,67.50
2018-03-20T06:04:46.992Z,73.13
2018-03-20T06:05:47.405Z,78.75
2018-03-20T06:06:47.820Z,90.00
2018-03-20T06:07:48.238Z,90.00
2018-03-20T06:08:48.654Z,78.75
2018-03-20T06:09:49.071Z,73.13
2018-03-20T06:10:49.487Z,67.50
2018-03-20T06:11:49.905Z,73.13
2018-03-20T06:12:50.320Z,73.13
2018-03-20T06:13:50.740Z,73.13
2018-03-20T06:14:51.154Z,73.13
2018-03-20T06:15:51.606Z,78.75
2018-03-20T06:16:51.998Z,78.75
2018-03-20T06:17:52.412Z,73.13
2018-03-20T06:18:52.909Z,73.13
2018-03-20T06:19:53.263Z,73.13
2018-03-20T06:20:53.680Z,67.50
2018-03-20T06:21:54.110Z,67.50
2018-03-20T06:22:54.495Z,61.88
2018-03-20T06:23:54.912Z,61.88
2018-03-20T06:24:55.337Z,61.88
2018-03-20T06:25:55.759Z,56.25
2018-03-20T06:26:56.163Z,61.88
2018-03-20T06:27:56.877Z,61.88
2018-03-20T06:28:57.010Z,61.88
2018-03-20T06:29:57.425Z,61.88
2018-03-20T06:30:57.850Z,67.50
2018-03-20T06:31:58.255Z,67.50
2018-03-20T06:32:58.674Z,73.13
2018-03-20T06:33:59.092Z,78.75
2018-03-20T06:34:59.509Z,84.38
2018-03-20T06:35:59.926Z,84.38
2018-03-20T06:37:00.354Z,90.00
2018-03-20T06:38:00.864Z,90.00
2018-03-20T06:39:01.182Z,90.00
2018-03-20T06:40:01.609Z,95.63
2018-03-20T06:41:02.014Z,95.63
2018-03-20T06:42:02.435Z,95.63
2018-03-20T06:43:02.851Z,101.25
2018-03-20T06:44:03.305Z,101.25
2018-03-20T06:45:03.707Z,106.88
2018-03-20T06:46:04.133Z,106.88
2018-03-20T06:47:04.550Z,112.50
2018-03-20T06:48:05.062Z,112.50
2018-03-20T06:49:05.370Z,106.88
2018-03-20T06:50:05.806Z,101.25
2018-03-20T06:51:06.199Z,95.63
2018-03-20T06:52:06.635Z,90.00
2018-03-20T06:53:07.038Z,90.00
2018-03-20T06:54:07.466Z,84.38
2018-03-20T06:55:07.875Z,84.38
2018-03-20T06:56:08.289Z,90.00
2018-03-20T06:57:08.708Z,90.00
2018-03-20T06:58:09.135Z,90.00
2018-03-20T06:59:09.562Z,90.00
2018-03-20T07:00:09.972Z,90.00
2018-03-20T07:01:10.389Z,90.00
2018-03-20T07:02:10.801Z,90.00
2018-03-20T07:03:11.218Z,90.00
2018-03-20T07:04:11.648Z,95.63
2018-03-20T07:05:12.062Z,95.63
2018-03-20T07:06:12.487Z,101.25
2018-03-20T07:07:12.896Z,101.25
2018-03-20T07:08:13.312Z,106.88
2018-03-20T07:10:46.872Z,118.13
2018-03-20T07:11:47.335Z,129.38
2018-03-20T07:12:47.709Z,129.38
2018-03-20T07:13:48.122Z,135.00
2018-03-20T07:14:48.539Z,140.63
2018-03-20T07:15:48.963Z,146.25
2018-03-20T07:16:49.441Z,151.88
2018-03-20T07:17:49.792Z,151.88
2018-03-20T07:18:50.206Z,151.88
2018-03-20T07:19:50.636Z,151.88
2018-03-20T07:20:51.050Z,151.88
2018-03-20T07:21:51.471Z,157.50
2018-03-20T07:22:51.949Z,163.13
2018-03-20T07:23:52.306Z,168.75
2018-03-20T07:24:52.727Z,168.75
2018-03-20T07:25:53.141Z,174.38
2018-03-20T07:26:53.561Z,174.38
2018-03-20T07:27:53.985Z,180.00
2018-03-20T07:28:54.424Z,185.63
2018-03-20T07:29:54.823Z,191.25
2018-03-20T07:30:55.243Z,191.25
2018-03-20T07:31:55.654Z,202.50
2018-03-20T07:32:56.082Z,213.75
2018-03-20T07:33:56.490Z,241.88
2018-03-20T07:34:56.914Z,247.50
2018-03-20T07:35:57.333Z,264.38
2018-03-20T07:36:57.758Z,281.25
2018-03-20T07:37:58.168Z,286.88
2018-03-20T07:38:58.593Z,281.25
2018-03-20T07:39:59.019Z,270.00
2018-03-20T07:40:59.578Z,258.75
2018-03-20T07:41:59.853Z,247.50
2018-03-20T07:43:00.271Z,236.25
2018-03-20T07:44:00.689Z,225.00
2018-03-20T07:45:01.114Z,219.38
2018-03-20T07:46:01.538Z,213.75
2018-03-20T07:47:01.955Z,213.75
2018-03-20T07:48:02.381Z,213.75
2018-03-20T07:49:02.802Z,213.75
2018-03-20T07:50:03.220Z,219.38
2018-03-20T07:51:03.638Z,225.00
2018-03-20T07:52:04.049Z,236.25
2018-03-20T07:53:04.477Z,241.88
2018-03-20T07:54:04.892Z,241.88
2018-03-20T07:55:05.350Z,236.25
2018-03-20T07:56:05.748Z,236.25
2018-03-20T07:57:06.218Z,236.25
2018-03-20T07:58:06.580Z,241.88
2018-03-20T07:59:07.000Z,247.50
2018-03-20T08:00:07.421Z,253.13
2018-03-20T08:01:07.836Z,258.75
2018-03-20T08:02:08.284Z,258.75
2018-03-20T08:03:08.681Z,264.38
2018-03-20T08:04:09.110Z,258.75
2018-03-20T08:05:09.517Z,258.75
2018-03-20T08:06:09.944Z,258.75
2018-03-20T08:07:10.358Z,258.75
2018-03-20T08:08:10.782Z,264.38
2018-03-20T08:09:11.202Z,264.38
2018-03-20T08:10:11.623Z,258.75
2018-03-20T08:11:12.045Z,253.13
2018-03-20T08:12:12.472Z,247.50
2018-03-20T08:13:12.919Z,247.50
2018-03-20T08:14:13.323Z,247.50
2018-03-20T08:15:13.728Z,247.50
2018-03-20T08:16:14.156Z,241.88
2018-03-20T08:17:14.566Z,236.25
2018-03-20T08:18:14.991Z,230.63
2018-03-20T08:19:15.411Z,219.38
2018-03-20T08:20:15.850Z,219.38
2018-03-20T08:21:16.253Z,213.75
2018-03-20T08:22:16.679Z,213.75
2018-03-20T08:23:17.096Z,213.75
2018-03-20T08:24:17.532Z,208.13
2018-03-20T08:25:17.937Z,196.88
2018-03-20T08:26:18.363Z,202.50
2018-03-20T08:27:18.781Z,202.50
2018-03-20T08:28:19.196Z,202.50
2018-03-20T08:29:19.671Z,202.50
2018-03-20T08:30:20.042Z,202.50
2018-03-20T08:31:20.454Z,208.13
2018-03-20T08:32:20.879Z,202.50
2018-03-20T08:33:21.305Z,202.50
2018-03-20T08:34:21.721Z,191.25
2018-03-20T08:35:22.140Z,196.88
2018-03-20T08:36:22.568Z,191.25
2018-03-20T08:37:22.976Z,180.00
2018-03-20T08:38:23.526Z,174.38
2018-03-20T08:39:23.824Z,174.38
2018-03-20T08:40:24.249Z,168.75
2018-03-20T08:41:24.664Z,174.38
2018-03-20T08:42:25.082Z,174.38
2018-03-20T08:43:25.500Z,174.38
2018-03-20T08:44:25.984Z,180.00
2018-03-20T08:45:26.338Z,185.63
2018-03-20T08:46:26.770Z,185.63
2018-03-20T08:47:27.185Z,180.00
2018-03-20T08:48:27.605Z,174.38
2018-03-20T08:49:28.021Z,168.75
2018-03-20T08:50:28.440Z,163.13
2018-03-20T08:51:28.866Z,163.13
2018-03-20T08:52:29.289Z,157.50
2018-03-20T08:53:29.711Z,157.50
2018-03-20T08:54:30.123Z,157.50
2018-03-20T08:55:30.548Z,163.13
2018-03-20T08:56:30.962Z,168.75
2018-03-20T08:57:31.384Z,168.75
2018-03-20T08:58:31.805Z,163.13
2018-03-20T08:59:32.227Z,157.50
2018-03-20T09:00:32.693Z,146.25
2018-03-20T09:01:33.062Z,146.25
2018-03-20T09:02:33.485Z,146.25
2018-03-20T09:03:33.904Z,146.25
2018-03-20T09:04:34.336Z,146.25
2018-03-20T09:05:34.748Z,157.50
2018-03-20T09:06:35.168Z,168.75
2018-03-20T09:07:35.586Z,180.00
2018-03-20T09:08:36.021Z,191.25
2018-03-20T09:09:36.440Z,196.88
2018-03-20T09:10:36.933Z,196.88
2018-03-20T09:11:37.271Z,208.13
2018-03-20T09:12:37.687Z,213.75
2018-03-20T09:13:38.116Z,219.38
2018-03-20T09:14:38.543Z,219.38
2018-03-20T09:15:38.953Z,236.25
2018-03-20T09:16:39.383Z,247.50
2018-03-20T09:17:39.792Z,253.13
2018-03-20T09:18:40.216Z,247.50
2018-03-20T09:19:40.636Z,236.25
2018-03-20T09:20:41.048Z,225.00
2018-03-20T09:21:41.471Z,219.38
2018-03-20T09:22:41.893Z,213.75
2018-03-20T09:23:42.326Z,225.00
2018-03-20T09:24:42.766Z,208.13
2018-03-20T09:25:43.203Z,191.25
2018-03-20T09:26:43.595Z,191.25
2018-03-20T09:27:44.036Z,202.50
2018-03-20T09:28:44.459Z,202.50
2018-03-20T09:29:44.912Z,191.25
2018-03-20T09:30:45.285Z,180.00
2018-03-20T09:31:45.723Z,180.00
2018-03-20T09:32:46.135Z,191.25
2018-03-20T09:33:46.540Z,202.50
2018-03-20T09:34:46.973Z,202.50
2018-03-20T09:35:47.390Z,202.50
2018-03-20T09:36:47.792Z,230.63
2018-03-20T09:37:48.243Z,241.88
2018-03-20T09:38:48.629Z,258.75
2018-03-20T09:39:49.044Z,275.63
2018-03-20T09:40:49.490Z,253.13
2018-03-20T09:41:49.882Z,236.25
2018-03-20T09:42:50.315Z,292.50
2018-03-20T09:43:50.789Z,320.63
2018-03-20T09:44:51.177Z,309.38
2018-03-20T09:45:51.630Z,298.13
2018-03-20T09:46:52.024Z,264.38
2018-03-20T09:47:52.448Z,286.88
2018-03-20T09:48:52.856Z,315.00
2018-03-20T09:49:53.244Z,343.13
2018-03-20T09:50:53.686Z,309.38
2018-03-20T09:51:54.094Z,275.63
2018-03-20T09:52:54.517Z,292.50
2018-03-20T09:53:54.957Z,376.88
2018-03-20T09:54:55.367Z,399.38
2018-03-20T09:55:55.777Z,399.38
2018-03-20T09:56:56.215Z,393.75
2018-03-20T09:57:56.632Z,376.88
2018-03-20T09:58:57.055Z,331.88
2018-03-20T09:59:57.472Z,292.50
2018-03-20T10:00:57.898Z,275.63
2018-03-20T10:01:58.302Z,315.00
2018-03-20T10:02:58.729Z,343.13
2018-03-20T10:03:59.184Z,331.88
2018-03-20T10:04:59.574Z,303.75
2018-03-20T10:06:00.006Z,354.38
2018-03-20T10:07:00.475Z,410.63
2018-03-20T10:08:00.844Z,405.00
2018-03-20T10:09:01.264Z,388.13
2018-03-20T10:10:01.681Z,326.25
2018-03-20T10:11:02.094Z,343.13
2018-03-20T10:12:02.541Z,348.75
2018-03-20T10:13:02.950Z,354.38
2018-03-20T10:14:03.414Z,371.25
2018-03-20T10:15:03.780Z,393.75
2018-03-20T10:16:04.206Z,393.75
2018-03-20T10:17:04.656Z,376.88
2018-03-20T10:18:05.066Z,326.25
2018-03-20T10:19:05.473Z,331.88
2018-03-20T10:20:05.959Z,348.75
2018-03-20T10:21:06.397Z,315.00
2018-03-20T10:22:06.740Z,292.50
2018-03-20T10:23:07.155Z,286.88
2018-03-20T10:24:07.589Z,281.25
2018-03-20T10:25:08.022Z,281.25
2018-03-20T10:26:08.424Z,275.63
2018-03-20T10:27:08.862Z,258.75
2018-03-20T10:28:09.297Z,213.75
2018-03-20T10:29:09.722Z,202.50
2018-03-20T10:30:10.147Z,202.50
2018-03-20T10:31:10.562Z,191.25
2018-03-20T10:32:11.007Z,168.75
2018-03-20T10:33:11.392Z,157.50
2018-03-20T10:34:11.802Z,157.50
2018-03-20T10:35:12.227Z,146.25
2018-03-20T10:36:12.664Z,146.25
2018-03-20T10:37:13.069Z,146.25
2018-03-20T10:38:13.499Z,140.63
2018-03-20T10:39:13.910Z,140.63
2018-03-20T10:40:14.369Z,151.88
2018-03-20T10:41:14.751Z,163.13
2018-03-20T10:42:15.195Z,174.38
2018-03-20T10:43:15.593Z,151.88
2018-03-20T10:44:16.069Z,157.50
2018-03-20T10:45:16.445Z,163.13
2018-03-20T10:46:16.865Z,174.38
2018-03-20T10:47:17.344Z,191.25
2018-03-20T10:48:17.726Z,180.00
2018-03-20T10:49:18.131Z,163.13
2018-03-20T10:50:18.548Z,174.38
2018-03-20T10:51:18.956Z,157.50
2018-03-20T10:52:19.374Z,180.00
2018-03-20T10:53:19.798Z,174.38
2018-03-20T10:54:20.224Z,168.75
2018-03-20T10:55:20.637Z,157.50
2018-03-20T10:56:21.068Z,151.88
2018-03-20T10:57:21.479Z,140.63
2018-03-20T10:58:21.902Z,151.88
2018-03-20T10:59:22.341Z,135.00
2018-03-20T11:00:22.743Z,140.63
2018-03-20T11:01:23.168Z,146.25
2018-03-20T11:02:23.585Z,157.50
2018-03-20T11:03:24.007Z,163.13
2018-03-20T11:04:24.427Z,191.25
2018-03-20T11:05:24.843Z,202.50
2018-03-20T11:06:25.262Z,202.50
2018-03-20T11:07:25.691Z,196.88
2018-03-20T11:08:26.130Z,213.75
2018-03-20T11:09:26.525Z,230.63
2018-03-20T11:10:26.976Z,236.25
2018-03-20T11:11:27.393Z,225.00
2018-03-20T11:12:27.791Z,208.13
2018-03-20T11:13:28.204Z,208.13
2018-03-20T11:14:28.630Z,208.13
2018-03-20T11:15:29.043Z,191.25
2018-03-20T11:16:29.469Z,163.13
2018-03-20T11:17:29.891Z,174.38
2018-03-20T11:18:30.306Z,191.25
2018-03-20T11:19:30.732Z,196.88
2018-03-20T11:20:31.161Z,185.63
2018-03-20T11:21:31.568Z,180.00
2018-03-20T11:22:31.995Z,191.25
2018-03-20T11:23:32.411Z,196.88
2018-03-20T11:24:32.832Z,191.25
2018-03-20T11:25:33.251Z,174.38
2018-03-20T11:26:33.688Z,174.38
2018-03-20T11:27:34.094Z,168.75
2018-03-20T11:28:34.521Z,146.25
2018-03-20T11:29:34.943Z,146.25
2018-03-20T11:30:35.359Z,140.63
2018-03-20T11:31:35.788Z,112.50
2018-03-20T11:32:36.205Z,118.13
2018-03-20T11:33:36.623Z,112.50
2018-03-20T11:34:37.032Z,112.50
2018-03-20T11:35:37.463Z,112.50
2018-03-20T11:36:37.884Z,112.50
2018-03-20T11:37:38.300Z,106.88
2018-03-20T11:38:38.725Z,129.38
2018-03-20T11:39:39.164Z,157.50
2018-03-20T11:40:39.570Z,157.50
2018-03-20T11:41:39.983Z,157.50
2018-03-20T11:42:40.412Z,129.38
2018-03-20T11:43:40.831Z,112.50
2018-03-20T11:44:41.255Z,118.13
2018-03-20T11:45:41.671Z,146.25
2018-03-20T11:46:42.087Z,157.50
2018-03-20T11:47:42.514Z,174.38
2018-03-20T11:48:42.921Z,208.13
2018-03-20T11:49:43.350Z,230.63
2018-03-20T11:50:43.770Z,213.75
2018-03-20T11:51:44.181Z,213.75
2018-03-20T11:52:44.614Z,202.50
2018-03-20T11:53:45.032Z,174.38
2018-03-20T11:54:45.502Z,185.63
2018-03-20T11:55:45.871Z,191.25
2018-03-20T11:56:46.288Z,185.63
2018-03-20T11:57:46.708Z,180.00
2018-03-20T11:58:47.129Z,180.00
2018-03-20T11:59:47.558Z,157.50
2018-03-20T12:00:47.977Z,146.25
2018-03-20T12:01:48.386Z,163.13
2018-03-20T12:02:48.815Z,225.00
2018-03-20T12:03:49.238Z,230.63
2018-03-20T12:04:49.710Z,236.25
2018-03-20T12:05:50.078Z,208.13
2018-03-20T12:06:50.494Z,191.25
2018-03-20T12:07:50.910Z,163.13
2018-03-20T12:08:51.349Z,168.75
2018-03-20T12:09:51.768Z,151.88
2018-03-20T12:10:52.182Z,157.50
2018-03-20T12:11:52.599Z,129.38
2018-03-20T12:12:53.026Z,112.50
2018-03-20T12:13:53.444Z,112.50
2018-03-20T12:14:53.862Z,106.88
2018-03-20T12:15:54.284Z,129.38
2018-03-20T12:16:54.707Z,191.25
2018-03-20T12:17:55.134Z,196.88
2018-03-20T12:18:55.764Z,168.75
2018-03-20T12:19:55.963Z,174.38
2018-03-20T12:20:56.384Z,185.63
2018-03-20T12:21:56.824Z,286.88
2018-03-20T12:22:57.234Z,241.88
2018-03-20T12:23:57.655Z,241.88
2018-03-20T12:24:58.066Z,270.00
2018-03-20T12:25:58.496Z,258.75
2018-03-20T12:26:58.907Z,213.75
2018-03-20T12:27:59.337Z,208.13
2018-03-20T12:28:59.751Z,219.38
2018-03-20T12:30:00.176Z,208.13
2018-03-20T12:31:00.602Z,196.88
2018-03-20T12:32:01.031Z,213.75
2018-03-20T12:33:01.445Z,208.13
2018-03-20T12:34:01.861Z,208.13
2018-03-20T12:35:02.281Z,174.38
2018-03-20T12:36:02.706Z,225.00
2018-03-20T12:37:03.120Z,286.88
2018-03-20T12:38:03.627Z,281.25
2018-03-20T12:39:03.966Z,258.75
2018-03-20T12:40:04.388Z,286.88
2018-03-20T12:41:04.807Z,371.25
2018-03-20T12:42:05.233Z,343.13
2018-03-20T12:43:05.670Z,292.50
2018-03-20T12:44:06.077Z,360.00
2018-03-20T12:45:06.493Z,315.00
2018-03-20T12:46:06.910Z,309.38
2018-03-20T12:47:07.340Z,292.50
2018-03-20T12:48:07.753Z,247.50
2018-03-20T12:49:08.182Z,225.00
2018-03-20T12:50:08.598Z,258.75
2018-03-20T12:51:09.018Z,337.50
2018-03-20T12:52:09.435Z,399.38
2018-03-20T12:53:09.867Z,309.38
2018-03-20T12:54:10.301Z,309.38
2018-03-20T12:55:10.705Z,275.63
2018-03-20T12:56:11.129Z,225.00
2018-03-20T12:57:11.547Z,225.00
2018-03-20T12:58:11.969Z,270.00
2018-03-20T12:59:12.397Z,247.50
2018-03-20T13:00:12.820Z,180.00
2018-03-20T13:01:13.235Z,157.50
2018-03-20T13:02:13.657Z,168.75
2018-03-20T13:03:14.076Z,208.13
2018-03-20T13:04:14.506Z,202.50
2018-03-20T13:05:14.922Z,191.25
2018-03-20T13:06:15.348Z,185.63
2018-03-20T13:07:15.771Z,185.63
2018-03-20T13:08:16.187Z,213.75
2018-03-20T13:09:16.608Z,168.75
2018-03-20T13:10:17.036Z,191.25
2018-03-20T13:11:17.463Z,241.88
2018-03-20T13:12:17.883Z,230.63
2018-03-20T13:13:18.301Z,174.38
2018-03-20T13:14:18.721Z,157.50
2018-03-20T13:15:19.142Z,213.75
2018-03-20T13:16:19.558Z,236.25
2018-03-20T13:17:19.987Z,236.25
2018-03-20T13:18:20.413Z,225.00
2018-03-20T13:19:20.858Z,286.88
2018-03-20T13:20:21.254Z,258.75
2018-03-20T13:21:21.663Z,225.00
2018-03-20T13:22:22.097Z,270.00
2018-03-20T13:23:22.536Z,298.13
2018-03-20T13:24:22.938Z,326.25
2018-03-20T13:25:23.355Z,303.75
2018-03-20T13:26:23.815Z,286.88
2018-03-20T13:27:24.203Z,241.88
2018-03-20T13:28:24.615Z,264.38
2018-03-20T13:29:25.059Z,270.00
2018-03-20T13:30:25.471Z,286.88
2018-03-20T13:31:25.894Z,258.75
2018-03-20T13:32:26.305Z,219.38
2018-03-20T13:33:26.732Z,236.25
2018-03-20T13:34:27.161Z,236.25
2018-03-20T13:35:27.574Z,230.63
2018-03-20T13:36:28.003Z,213.75
2018-03-20T13:37:28.414Z,208.13
2018-03-20T13:38:28.838Z,185.63
2018-03-20T13:39:29.263Z,151.88
2018-03-20T13:40:29.682Z,174.38
2018-03-20T13:41:30.105Z,140.63
2018-03-20T13:42:30.526Z,123.75
2018-03-20T13:43:30.957Z,140.63
2018-03-20T13:44:31.366Z,140.63
2018-03-20T13:45:31.796Z,129.38
2018-03-20T13:46:32.212Z,112.50
2018-03-20T13:47:32.635Z,101.25
2018-03-20T13:48:33.057Z,101.25
2018-03-20T13:49:33.497Z,135.00
2018-03-20T13:50:33.906Z,140.63
2018-03-20T13:51:34.322Z,129.38
2018-03-20T13:52:34.759Z,129.38
2018-03-20T13:53:35.159Z,118.13
2018-03-20T13:54:35.582Z,112.50
2018-03-20T13:55:36.001Z,106.88
2018-03-20T13:56:36.434Z,95.63
2018-03-20T13:57:36.862Z,95.63
2018-03-20T13:58:37.293Z,90.00
2018-03-20T13:59:37.697Z,101.25
2018-03-20T14:00:38.113Z,112.50
2018-03-20T14:01:38.526Z,90.00
2018-03-20T14:02:38.960Z,84.38
2018-03-20T14:03:39.374Z,95.63
2018-03-20T14:04:39.849Z,112.50
2018-03-20T14:05:40.212Z,95.63
2018-03-20T14:06:40.701Z,106.88
2018-03-20T14:07:41.056Z,106.88
2018-03-20T14:08:41.476Z,90.00
2018-03-20T14:09:41.900Z,95.63
2018-03-20T14:10:42.339Z,90.00
2018-03-20T14:11:42.749Z,90.00
2018-03-20T14:12:43.170Z,106.88
2018-03-20T14:13:43.583Z,106.88
2018-03-20T14:14:44.016Z,123.75
2018-03-20T14:15:44.422Z,101.25
2018-03-20T14:16:44.845Z,106.88
2018-03-20T14:17:45.302Z,112.50
2018-03-20T14:18:45.693Z,129.38
2018-03-20T14:19:46.110Z,106.88
2018-03-20T14:20:46.542Z,84.38
2018-03-20T14:21:46.950Z,84.38
2018-03-20T14:22:47.372Z,101.25
2018-03-20T14:23:47.800Z,95.63